sensor_id;sensor_type;location;lat;lon;timestamp;P1;durP1;ratioP1;P2;durP2;ratioP2
39524;SDS011;25203;50.754;6.978;2023-02-28T00:00:04;6.97;;;3.00;;
39524;SDS011;25203;50.754;6.978;2023-02-28T00:02:11;5.72;;;3.50;;
39524;SDS011;25203;50.754;6.978;2023-02-28T00:04:12;7.97;;;4.05;;
39524;SDS011;25203;50.754;6.978;2023-02-28T00:06:12;6.20;;;3.78;;
39524;SDS011;25203;50.754;6.978;2023-02-28T00:08:13;5.25;;;3.35;;
39524;SDS011;25203;50.754;6.978;2023-02-28T00:10:16;5.88;;;3.63;;
39524;SDS011;25203;50.754;6.978;2023-02-28T00:12:20;7.90;;;3.55;;
39524;SDS011;25203;50.754;6.978;2023-02-28T00:14:21;4.75;;;3.33;;
39524;SDS011;25203;50.754;6.978;2023-02-28T00:16:22;7.57;;;3.33;;
39524;SDS011;25203;50.754;6.978;2023-02-28T00:18:22;6.93;;;3.65;;
39524;SDS011;25203;50.754;6.978;2023-02-28T00:20:23;8.35;;;3.58;;
39524;SDS011;25203;50.754;6.978;2023-02-28T00:22:24;8.60;;;3.80;;
39524;SDS011;25203;50.754;6.978;2023-02-28T00:24:25;10.05;;;4.00;;
39524;SDS011;25203;50.754;6.978;2023-02-28T00:26:25;7.53;;;4.00;;
39524;SDS011;25203;50.754;6.978;2023-02-28T00:28:26;6.55;;;3.78;;
39524;SDS011;25203;50.754;6.978;2023-02-28T00:30:26;10.10;;;4.53;;
39524;SDS011;25203;50.754;6.978;2023-02-28T00:32:27;8.00;;;3.78;;
39524;SDS011;25203;50.754;6.978;2023-02-28T00:34:27;5.85;;;3.75;;
39524;SDS011;25203;50.754;6.978;2023-02-28T00:36:29;7.07;;;3.80;;
39524;SDS011;25203;50.754;6.978;2023-02-28T00:38:29;5.75;;;3.90;;
39524;SDS011;25203;50.754;6.978;2023-02-28T00:40:30;6.10;;;3.72;;
39524;SDS011;25203;50.754;6.978;2023-02-28T00:42:31;5.13;;;4.13;;
39524;SDS011;25203;50.754;6.978;2023-02-28T00:44:31;6.80;;;3.60;;
39524;SDS011;25203;50.754;6.978;2023-02-28T00:46:32;8.27;;;4.07;;
39524;SDS011;25203;50.754;6.978;2023-02-28T00:48:33;8.35;;;3.92;;
39524;SDS011;25203;50.754;6.978;2023-02-28T00:50:33;7.35;;;3.60;;
39524;SDS011;25203;50.754;6.978;2023-02-28T00:52:34;5.60;;;3.72;;
39524;SDS011;25203;50.754;6.978;2023-02-28T00:54:35;10.90;;;3.85;;
39524;SDS011;25203;50.754;6.978;2023-02-28T00:56:35;6.95;;;4.32;;
39524;SDS011;25203;50.754;6.978;2023-02-28T00:58:36;8.68;;;4.78;;
39524;SDS011;25203;50.754;6.978;2023-02-28T01:00:36;7.53;;;4.97;;
39524;SDS011;25203;50.754;6.978;2023-02-28T01:02:37;8.18;;;4.05;;
39524;SDS011;25203;50.754;6.978;2023-02-28T01:04:37;4.68;;;3.45;;
39524;SDS011;25203;50.754;6.978;2023-02-28T01:06:38;6.63;;;3.83;;
39524;SDS011;25203;50.754;6.978;2023-02-28T01:08:39;5.60;;;4.28;;
39524;SDS011;25203;50.754;6.978;2023-02-28T01:10:39;7.03;;;3.95;;
39524;SDS011;25203;50.754;6.978;2023-02-28T01:12:40;5.15;;;3.75;;
39524;SDS011;25203;50.754;6.978;2023-02-28T01:14:41;8.40;;;4.03;;
39524;SDS011;25203;50.754;6.978;2023-02-28T01:16:42;7.10;;;4.22;;
39524;SDS011;25203;50.754;6.978;2023-02-28T01:18:42;9.50;;;4.32;;
39524;SDS011;25203;50.754;6.978;2023-02-28T01:20:43;9.02;;;4.28;;
39524;SDS011;25203;50.754;6.978;2023-02-28T01:22:44;8.13;;;4.63;;
39524;SDS011;25203;50.754;6.978;2023-02-28T01:24:45;9.32;;;4.90;;
39524;SDS011;25203;50.754;6.978;2023-02-28T01:26:46;6.60;;;4.10;;
39524;SDS011;25203;50.754;6.978;2023-02-28T01:28:46;9.40;;;4.18;;
39524;SDS011;25203;50.754;6.978;2023-02-28T01:30:49;9.65;;;4.22;;
39524;SDS011;25203;50.754;6.978;2023-02-28T01:32:50;6.28;;;4.53;;
39524;SDS011;25203;50.754;6.978;2023-02-28T01:34:53;8.25;;;3.90;;
39524;SDS011;25203;50.754;6.978;2023-02-28T01:36:54;10.60;;;4.70;;
39524;SDS011;25203;50.754;6.978;2023-02-28T01:38:54;5.90;;;4.20;;
39524;SDS011;25203;50.754;6.978;2023-02-28T01:40:55;6.28;;;4.03;;
39524;SDS011;25203;50.754;6.978;2023-02-28T01:42:56;7.75;;;4.45;;
39524;SDS011;25203;50.754;6.978;2023-02-28T01:47:02;9.80;;;4.07;;
39524;SDS011;25203;50.754;6.978;2023-02-28T01:49:11;7.10;;;4.15;;
39524;SDS011;25203;50.754;6.978;2023-02-28T01:51:15;6.25;;;4.35;;
39524;SDS011;25203;50.754;6.978;2023-02-28T01:53:21;11.20;;;4.15;;
39524;SDS011;25203;50.754;6.978;2023-02-28T01:55:28;8.77;;;4.20;;
39524;SDS011;25203;50.754;6.978;2023-02-28T01:57:32;6.97;;;3.75;;
39524;SDS011;25203;50.754;6.978;2023-02-28T01:59:42;8.38;;;4.03;;
39524;SDS011;25203;50.754;6.978;2023-02-28T02:01:51;8.57;;;4.22;;
39524;SDS011;25203;50.754;6.978;2023-02-28T02:03:56;6.30;;;3.75;;
39524;SDS011;25203;50.754;6.978;2023-02-28T02:05:58;7.95;;;3.88;;
39524;SDS011;25203;50.754;6.978;2023-02-28T02:08:04;5.07;;;4.13;;
39524;SDS011;25203;50.754;6.978;2023-02-28T02:10:12;6.47;;;3.60;;
39524;SDS011;25203;50.754;6.978;2023-02-28T02:14:54;4.95;;;3.47;;
39524;SDS011;25203;50.754;6.978;2023-02-28T02:21:54;5.28;;;3.83;;
39524;SDS011;25203;50.754;6.978;2023-02-28T02:33:47;8.43;;;4.07;;
39524;SDS011;25203;50.754;6.978;2023-02-28T02:35:53;8.10;;;3.88;;
39524;SDS011;25203;50.754;6.978;2023-02-28T02:38:09;8.50;;;3.88;;
39524;SDS011;25203;50.754;6.978;2023-02-28T02:40:23;5.63;;;3.85;;
39524;SDS011;25203;50.754;6.978;2023-02-28T02:42:39;6.80;;;3.90;;
39524;SDS011;25203;50.754;6.978;2023-02-28T02:44:43;6.03;;;3.55;;
39524;SDS011;25203;50.754;6.978;2023-02-28T02:46:48;5.95;;;3.28;;
39524;SDS011;25203;50.754;6.978;2023-02-28T02:48:53;6.47;;;3.67;;
39524;SDS011;25203;50.754;6.978;2023-02-28T02:50:58;8.45;;;3.78;;
39524;SDS011;25203;50.754;6.978;2023-02-28T02:53:01;6.32;;;4.00;;
39524;SDS011;25203;50.754;6.978;2023-02-28T02:55:04;6.38;;;4.20;;
39524;SDS011;25203;50.754;6.978;2023-02-28T02:57:13;9.73;;;4.22;;
39524;SDS011;25203;50.754;6.978;2023-02-28T02:59:20;6.07;;;3.53;;
39524;SDS011;25203;50.754;6.978;2023-02-28T03:01:24;6.30;;;4.18;;
39524;SDS011;25203;50.754;6.978;2023-02-28T03:03:28;6.97;;;3.88;;
39524;SDS011;25203;50.754;6.978;2023-02-28T03:05:35;9.80;;;4.03;;
39524;SDS011;25203;50.754;6.978;2023-02-28T03:07:45;7.13;;;4.00;;
39524;SDS011;25203;50.754;6.978;2023-02-28T03:09:53;6.90;;;4.03;;
39524;SDS011;25203;50.754;6.978;2023-02-28T03:11:56;5.03;;;3.90;;
39524;SDS011;25203;50.754;6.978;2023-02-28T03:23:21;6.78;;;3.78;;
39524;SDS011;25203;50.754;6.978;2023-02-28T03:30:06;7.57;;;3.85;;
39524;SDS011;25203;50.754;6.978;2023-02-28T03:32:21;6.40;;;3.97;;
39524;SDS011;25203;50.754;6.978;2023-02-28T03:34:29;6.35;;;3.78;;
39524;SDS011;25203;50.754;6.978;2023-02-28T03:36:37;5.65;;;3.33;;
39524;SDS011;25203;50.754;6.978;2023-02-28T03:38:51;6.35;;;3.50;;
39524;SDS011;25203;50.754;6.978;2023-02-28T03:41:19;6.47;;;3.30;;
39524;SDS011;25203;50.754;6.978;2023-02-28T03:43:29;8.63;;;5.57;;
39524;SDS011;25203;50.754;6.978;2023-02-28T03:45:33;7.50;;;3.95;;
39524;SDS011;25203;50.754;6.978;2023-02-28T03:47:49;6.53;;;4.18;;
39524;SDS011;25203;50.754;6.978;2023-02-28T03:52:10;8.52;;;3.67;;
39524;SDS011;25203;50.754;6.978;2023-02-28T03:54:12;5.82;;;3.47;;
39524;SDS011;25203;50.754;6.978;2023-02-28T03:56:19;10.40;;;4.10;;
39524;SDS011;25203;50.754;6.978;2023-02-28T04:00:37;7.10;;;4.43;;
39524;SDS011;25203;50.754;6.978;2023-02-28T04:02:43;7.60;;;4.43;;
39524;SDS011;25203;50.754;6.978;2023-02-28T04:04:44;6.18;;;4.35;;
39524;SDS011;25203;50.754;6.978;2023-02-28T04:06:45;8.00;;;4.20;;
39524;SDS011;25203;50.754;6.978;2023-02-28T04:08:49;7.05;;;4.13;;
39524;SDS011;25203;50.754;6.978;2023-02-28T04:10:53;7.97;;;4.88;;
39524;SDS011;25203;50.754;6.978;2023-02-28T04:12:59;7.88;;;4.13;;
39524;SDS011;25203;50.754;6.978;2023-02-28T04:15:00;6.20;;;3.90;;
39524;SDS011;25203;50.754;6.978;2023-02-28T04:17:00;7.75;;;4.43;;
39524;SDS011;25203;50.754;6.978;2023-02-28T04:19:02;9.90;;;4.03;;
39524;SDS011;25203;50.754;6.978;2023-02-28T04:21:05;6.50;;;4.45;;
39524;SDS011;25203;50.754;6.978;2023-02-28T04:23:06;11.35;;;4.07;;
39524;SDS011;25203;50.754;6.978;2023-02-28T04:25:07;5.72;;;3.85;;
39524;SDS011;25203;50.754;6.978;2023-02-28T04:27:08;5.30;;;3.80;;
39524;SDS011;25203;50.754;6.978;2023-02-28T04:29:10;6.10;;;3.97;;
39524;SDS011;25203;50.754;6.978;2023-02-28T04:31:13;5.45;;;3.85;;
39524;SDS011;25203;50.754;6.978;2023-02-28T04:33:13;8.38;;;4.40;;
39524;SDS011;25203;50.754;6.978;2023-02-28T04:35:14;7.45;;;4.55;;
39524;SDS011;25203;50.754;6.978;2023-02-28T04:37:15;5.93;;;4.22;;
39524;SDS011;25203;50.754;6.978;2023-02-28T04:39:16;6.00;;;4.50;;
39524;SDS011;25203;50.754;6.978;2023-02-28T04:41:18;7.22;;;4.40;;
39524;SDS011;25203;50.754;6.978;2023-02-28T04:43:19;7.00;;;4.70;;
39524;SDS011;25203;50.754;6.978;2023-02-28T04:45:19;6.88;;;4.40;;
39524;SDS011;25203;50.754;6.978;2023-02-28T04:47:20;5.40;;;4.00;;
39524;SDS011;25203;50.754;6.978;2023-02-28T04:49:21;6.57;;;3.70;;
39524;SDS011;25203;50.754;6.978;2023-02-28T04:51:21;7.97;;;4.05;;
39524;SDS011;25203;50.754;6.978;2023-02-28T04:53:22;6.43;;;4.22;;
39524;SDS011;25203;50.754;6.978;2023-02-28T04:55:23;9.48;;;4.40;;
39524;SDS011;25203;50.754;6.978;2023-02-28T04:57:23;6.43;;;4.65;;
39524;SDS011;25203;50.754;6.978;2023-02-28T04:59:24;6.50;;;3.88;;
39524;SDS011;25203;50.754;6.978;2023-02-28T05:01:32;7.63;;;5.07;;
39524;SDS011;25203;50.754;6.978;2023-02-28T05:03:34;7.22;;;4.70;;
39524;SDS011;25203;50.754;6.978;2023-02-28T05:05:35;8.60;;;4.55;;
39524;SDS011;25203;50.754;6.978;2023-02-28T05:07:35;7.53;;;4.70;;
39524;SDS011;25203;50.754;6.978;2023-02-28T05:09:36;10.63;;;4.82;;
39524;SDS011;25203;50.754;6.978;2023-02-28T05:11:36;8.07;;;4.75;;
39524;SDS011;25203;50.754;6.978;2023-02-28T05:13:39;4.95;;;3.90;;
39524;SDS011;25203;50.754;6.978;2023-02-28T05:15:39;8.95;;;4.65;;
39524;SDS011;25203;50.754;6.978;2023-02-28T05:17:40;7.75;;;4.10;;
39524;SDS011;25203;50.754;6.978;2023-02-28T05:19:40;8.38;;;4.65;;
39524;SDS011;25203;50.754;6.978;2023-02-28T05:21:41;6.32;;;4.40;;
39524;SDS011;25203;50.754;6.978;2023-02-28T05:23:56;6.45;;;4.78;;
39524;SDS011;25203;50.754;6.978;2023-02-28T05:26:01;7.60;;;5.45;;
39524;SDS011;25203;50.754;6.978;2023-02-28T05:28:01;5.38;;;4.15;;
39524;SDS011;25203;50.754;6.978;2023-02-28T05:30:02;7.47;;;4.22;;
39524;SDS011;25203;50.754;6.978;2023-02-28T05:32:04;5.03;;;3.75;;
39524;SDS011;25203;50.754;6.978;2023-02-28T05:34:04;7.03;;;3.80;;
39524;SDS011;25203;50.754;6.978;2023-02-28T05:36:06;4.75;;;3.55;;
39524;SDS011;25203;50.754;6.978;2023-02-28T05:38:07;7.43;;;4.70;;
39524;SDS011;25203;50.754;6.978;2023-02-28T05:40:08;9.10;;;4.68;;
39524;SDS011;25203;50.754;6.978;2023-02-28T05:42:10;8.43;;;4.10;;
39524;SDS011;25203;50.754;6.978;2023-02-28T05:44:10;9.52;;;4.28;;
39524;SDS011;25203;50.754;6.978;2023-02-28T05:46:12;4.85;;;3.92;;
39524;SDS011;25203;50.754;6.978;2023-02-28T05:48:13;6.38;;;4.00;;
39524;SDS011;25203;50.754;6.978;2023-02-28T05:50:14;5.55;;;3.95;;
39524;SDS011;25203;50.754;6.978;2023-02-28T05:52:15;5.93;;;4.43;;
39524;SDS011;25203;50.754;6.978;2023-02-28T05:54:15;6.53;;;4.55;;
39524;SDS011;25203;50.754;6.978;2023-02-28T05:56:16;6.75;;;4.15;;
39524;SDS011;25203;50.754;6.978;2023-02-28T05:58:16;4.57;;;3.55;;
39524;SDS011;25203;50.754;6.978;2023-02-28T06:00:17;4.95;;;3.58;;
39524;SDS011;25203;50.754;6.978;2023-02-28T06:02:18;5.70;;;3.85;;
39524;SDS011;25203;50.754;6.978;2023-02-28T06:04:19;6.10;;;3.85;;
39524;SDS011;25203;50.754;6.978;2023-02-28T06:06:20;6.68;;;3.25;;
39524;SDS011;25203;50.754;6.978;2023-02-28T06:08:21;8.52;;;4.20;;
39524;SDS011;25203;50.754;6.978;2023-02-28T06:10:21;6.05;;;4.20;;
39524;SDS011;25203;50.754;6.978;2023-02-28T06:12:22;5.82;;;3.70;;
39524;SDS011;25203;50.754;6.978;2023-02-28T06:14:23;6.28;;;3.90;;
39524;SDS011;25203;50.754;6.978;2023-02-28T06:16:23;5.45;;;4.47;;
39524;SDS011;25203;50.754;6.978;2023-02-28T06:18:24;8.75;;;4.40;;
39524;SDS011;25203;50.754;6.978;2023-02-28T06:20:25;6.63;;;3.88;;
39524;SDS011;25203;50.754;6.978;2023-02-28T06:22:29;6.65;;;4.00;;
39524;SDS011;25203;50.754;6.978;2023-02-28T06:24:30;5.00;;;3.83;;
39524;SDS011;25203;50.754;6.978;2023-02-28T06:26:31;5.70;;;3.50;;
39524;SDS011;25203;50.754;6.978;2023-02-28T06:28:32;5.97;;;3.40;;
39524;SDS011;25203;50.754;6.978;2023-02-28T06:30:32;6.68;;;3.72;;
39524;SDS011;25203;50.754;6.978;2023-02-28T06:32:33;6.18;;;4.03;;
39524;SDS011;25203;50.754;6.978;2023-02-28T06:34:35;5.43;;;4.28;;
39524;SDS011;25203;50.754;6.978;2023-02-28T06:36:36;5.80;;;4.10;;
39524;SDS011;25203;50.754;6.978;2023-02-28T06:38:38;6.70;;;4.78;;
39524;SDS011;25203;50.754;6.978;2023-02-28T06:40:40;6.65;;;3.72;;
39524;SDS011;25203;50.754;6.978;2023-02-28T06:42:41;5.35;;;4.07;;
39524;SDS011;25203;50.754;6.978;2023-02-28T06:44:41;6.70;;;4.32;;
39524;SDS011;25203;50.754;6.978;2023-02-28T06:46:43;5.07;;;3.78;;
39524;SDS011;25203;50.754;6.978;2023-02-28T06:48:45;6.15;;;4.13;;
39524;SDS011;25203;50.754;6.978;2023-02-28T06:50:47;7.07;;;4.53;;
39524;SDS011;25203;50.754;6.978;2023-02-28T06:52:47;6.80;;;3.90;;
39524;SDS011;25203;50.754;6.978;2023-02-28T06:54:48;6.80;;;4.75;;
39524;SDS011;25203;50.754;6.978;2023-02-28T06:56:59;6.88;;;4.25;;
39524;SDS011;25203;50.754;6.978;2023-02-28T06:59:00;6.90;;;4.40;;
39524;SDS011;25203;50.754;6.978;2023-02-28T07:01:01;8.35;;;4.28;;
39524;SDS011;25203;50.754;6.978;2023-02-28T07:03:02;8.10;;;4.32;;
39524;SDS011;25203;50.754;6.978;2023-02-28T07:05:03;7.35;;;3.85;;
39524;SDS011;25203;50.754;6.978;2023-02-28T07:07:04;9.18;;;4.30;;
39524;SDS011;25203;50.754;6.978;2023-02-28T07:09:05;5.90;;;4.43;;
39524;SDS011;25203;50.754;6.978;2023-02-28T07:11:05;8.05;;;4.60;;
39524;SDS011;25203;50.754;6.978;2023-02-28T07:13:06;8.68;;;4.60;;
39524;SDS011;25203;50.754;6.978;2023-02-28T07:15:08;8.98;;;4.43;;
39524;SDS011;25203;50.754;6.978;2023-02-28T07:17:10;6.15;;;4.50;;
39524;SDS011;25203;50.754;6.978;2023-02-28T07:19:12;6.50;;;4.30;;
39524;SDS011;25203;50.754;6.978;2023-02-28T07:21:12;7.07;;;4.32;;
39524;SDS011;25203;50.754;6.978;2023-02-28T07:23:13;10.18;;;4.32;;
39524;SDS011;25203;50.754;6.978;2023-02-28T07:25:14;5.80;;;4.15;;
39524;SDS011;25203;50.754;6.978;2023-02-28T07:27:14;9.15;;;4.75;;
39524;SDS011;25203;50.754;6.978;2023-02-28T07:29:23;8.75;;;4.93;;
39524;SDS011;25203;50.754;6.978;2023-02-28T07:31:24;7.72;;;5.45;;
39524;SDS011;25203;50.754;6.978;2023-02-28T07:33:24;7.88;;;4.40;;
39524;SDS011;25203;50.754;6.978;2023-02-28T07:35:25;7.57;;;3.80;;
39524;SDS011;25203;50.754;6.978;2023-02-28T07:37:25;4.35;;;3.03;;
39524;SDS011;25203;50.754;6.978;2023-02-28T07:39:26;7.72;;;3.05;;
39524;SDS011;25203;50.754;6.978;2023-02-28T07:41:27;6.13;;;2.80;;
39524;SDS011;25203;50.754;6.978;2023-02-28T07:43:30;3.53;;;2.80;;
39524;SDS011;25203;50.754;6.978;2023-02-28T07:45:31;6.97;;;3.00;;
39524;SDS011;25203;50.754;6.978;2023-02-28T07:47:34;5.57;;;2.78;;
39524;SDS011;25203;50.754;6.978;2023-02-28T07:49:35;7.57;;;3.08;;
39524;SDS011;25203;50.754;6.978;2023-02-28T07:51:36;3.90;;;2.47;;
39524;SDS011;25203;50.754;6.978;2023-02-28T07:53:36;4.28;;;2.67;;
39524;SDS011;25203;50.754;6.978;2023-02-28T07:55:37;4.03;;;2.50;;
39524;SDS011;25203;50.754;6.978;2023-02-28T07:57:38;4.18;;;2.42;;
39524;SDS011;25203;50.754;6.978;2023-02-28T07:59:38;4.53;;;2.67;;
39524;SDS011;25203;50.754;6.978;2023-02-28T08:01:39;4.90;;;2.55;;
39524;SDS011;25203;50.754;6.978;2023-02-28T08:03:40;5.25;;;2.53;;
39524;SDS011;25203;50.754;6.978;2023-02-28T08:05:41;4.85;;;2.45;;
39524;SDS011;25203;50.754;6.978;2023-02-28T08:07:42;6.32;;;2.70;;
39524;SDS011;25203;50.754;6.978;2023-02-28T08:09:43;4.47;;;2.40;;
39524;SDS011;25203;50.754;6.978;2023-02-28T08:11:44;4.75;;;2.55;;
39524;SDS011;25203;50.754;6.978;2023-02-28T08:13:45;6.85;;;2.70;;
39524;SDS011;25203;50.754;6.978;2023-02-28T08:15:46;3.83;;;2.40;;
39524;SDS011;25203;50.754;6.978;2023-02-28T08:17:47;3.85;;;2.42;;
39524;SDS011;25203;50.754;6.978;2023-02-28T08:19:47;5.63;;;2.90;;
39524;SDS011;25203;50.754;6.978;2023-02-28T08:21:48;2.88;;;1.90;;
39524;SDS011;25203;50.754;6.978;2023-02-28T08:23:50;8.35;;;2.60;;
39524;SDS011;25203;50.754;6.978;2023-02-28T08:25:54;5.10;;;2.33;;
39524;SDS011;25203;50.754;6.978;2023-02-28T08:27:56;3.25;;;2.00;;
39524;SDS011;25203;50.754;6.978;2023-02-28T08:29:56;3.97;;;2.40;;
39524;SDS011;25203;50.754;6.978;2023-02-28T08:31:57;4.75;;;2.00;;
39524;SDS011;25203;50.754;6.978;2023-02-28T08:33:58;4.32;;;2.25;;
39524;SDS011;25203;50.754;6.978;2023-02-28T08:35:59;2.70;;;2.13;;
39524;SDS011;25203;50.754;6.978;2023-02-28T08:37:59;3.28;;;2.30;;
39524;SDS011;25203;50.754;6.978;2023-02-28T08:40:00;4.70;;;2.22;;
39524;SDS011;25203;50.754;6.978;2023-02-28T08:42:01;3.65;;;2.03;;
39524;SDS011;25203;50.754;6.978;2023-02-28T08:44:03;2.80;;;1.88;;
39524;SDS011;25203;50.754;6.978;2023-02-28T08:46:04;3.55;;;2.08;;
39524;SDS011;25203;50.754;6.978;2023-02-28T08:48:05;4.18;;;2.60;;
39524;SDS011;25203;50.754;6.978;2023-02-28T08:50:06;4.95;;;2.22;;
39524;SDS011;25203;50.754;6.978;2023-02-28T08:52:07;2.95;;;2.17;;
39524;SDS011;25203;50.754;6.978;2023-02-28T08:54:08;4.85;;;1.80;;
39524;SDS011;25203;50.754;6.978;2023-02-28T08:56:12;5.55;;;2.00;;
39524;SDS011;25203;50.754;6.978;2023-02-28T08:58:16;5.38;;;2.33;;
39524;SDS011;25203;50.754;6.978;2023-02-28T09:00:17;2.85;;;2.10;;
39524;SDS011;25203;50.754;6.978;2023-02-28T09:02:18;3.97;;;2.00;;
39524;SDS011;25203;50.754;6.978;2023-02-28T09:04:18;8.18;;;2.20;;
39524;SDS011;25203;50.754;6.978;2023-02-28T09:06:20;5.55;;;2.15;;
39524;SDS011;25203;50.754;6.978;2023-02-28T09:08:22;2.53;;;1.77;;
39524;SDS011;25203;50.754;6.978;2023-02-28T09:10:24;3.22;;;1.90;;
39524;SDS011;25203;50.754;6.978;2023-02-28T09:12:25;2.50;;;1.77;;
39524;SDS011;25203;50.754;6.978;2023-02-28T09:14:27;2.20;;;1.55;;
39524;SDS011;25203;50.754;6.978;2023-02-28T09:16:28;2.25;;;1.60;;
39524;SDS011;25203;50.754;6.978;2023-02-28T09:18:30;4.78;;;1.80;;
39524;SDS011;25203;50.754;6.978;2023-02-28T09:20:31;4.13;;;1.65;;
39524;SDS011;25203;50.754;6.978;2023-02-28T09:22:32;5.28;;;2.10;;
39524;SDS011;25203;50.754;6.978;2023-02-28T09:24:32;7.13;;;2.13;;
39524;SDS011;25203;50.754;6.978;2023-02-28T09:26:33;12.73;;;1.90;;
39524;SDS011;25203;50.754;6.978;2023-02-28T09:28:34;3.92;;;1.95;;
39524;SDS011;25203;50.754;6.978;2023-02-28T09:30:34;4.25;;;1.70;;
39524;SDS011;25203;50.754;6.978;2023-02-28T09:32:35;1.75;;;1.40;;
39524;SDS011;25203;50.754;6.978;2023-02-28T09:34:35;2.75;;;1.90;;
39524;SDS011;25203;50.754;6.978;2023-02-28T09:36:37;3.88;;;1.60;;
39524;SDS011;25203;50.754;6.978;2023-02-28T09:38:37;10.27;;;1.60;;
39524;SDS011;25203;50.754;6.978;2023-02-28T09:40:46;4.68;;;1.70;;
39524;SDS011;25203;50.754;6.978;2023-02-28T09:42:53;2.15;;;1.60;;
39524;SDS011;25203;50.754;6.978;2023-02-28T09:44:55;2.65;;;1.75;;
39524;SDS011;25203;50.754;6.978;2023-02-28T09:47:05;3.83;;;1.70;;
39524;SDS011;25203;50.754;6.978;2023-02-28T09:49:12;2.30;;;1.70;;
39524;SDS011;25203;50.754;6.978;2023-02-28T09:53:36;4.20;;;1.45;;
39524;SDS011;25203;50.754;6.978;2023-02-28T09:55:41;1.67;;;1.50;;
39524;SDS011;25203;50.754;6.978;2023-02-28T09:57:47;2.55;;;1.50;;
39524;SDS011;25203;50.754;6.978;2023-02-28T09:59:56;2.58;;;1.60;;
39524;SDS011;25203;50.754;6.978;2023-02-28T10:02:17;1.77;;;1.50;;
39524;SDS011;25203;50.754;6.978;2023-02-28T10:06:54;3.13;;;1.77;;
39524;SDS011;25203;50.754;6.978;2023-02-28T10:11:06;3.92;;;1.50;;
39524;SDS011;25203;50.754;6.978;2023-02-28T10:13:13;2.13;;;1.35;;
39524;SDS011;25203;50.754;6.978;2023-02-28T10:15:34;3.05;;;1.88;;
39524;SDS011;25203;50.754;6.978;2023-02-28T10:17:38;1.98;;;1.63;;
39524;SDS011;25203;50.754;6.978;2023-02-28T10:19:44;3.35;;;2.03;;
39524;SDS011;25203;50.754;6.978;2023-02-28T10:22:00;2.33;;;1.83;;
39524;SDS011;25203;50.754;6.978;2023-02-28T10:24:14;2.97;;;1.80;;
39524;SDS011;25203;50.754;6.978;2023-02-28T10:26:38;3.90;;;1.83;;
39524;SDS011;25203;50.754;6.978;2023-02-28T10:28:41;2.42;;;1.83;;
39524;SDS011;25203;50.754;6.978;2023-02-28T10:30:43;2.65;;;1.40;;
39524;SDS011;25203;50.754;6.978;2023-02-28T10:32:48;2.13;;;1.67;;
39524;SDS011;25203;50.754;6.978;2023-02-28T10:35:00;3.38;;;1.67;;
39524;SDS011;25203;50.754;6.978;2023-02-28T10:37:01;2.78;;;1.70;;
39524;SDS011;25203;50.754;6.978;2023-02-28T10:41:43;2.10;;;1.90;;
39524;SDS011;25203;50.754;6.978;2023-02-28T10:43:44;2.80;;;1.67;;
39524;SDS011;25203;50.754;6.978;2023-02-28T10:50:32;2.20;;;1.70;;
39524;SDS011;25203;50.754;6.978;2023-02-28T10:52:50;4.90;;;1.67;;
39524;SDS011;25203;50.754;6.978;2023-02-28T10:54:51;2.28;;;2.00;;
39524;SDS011;25203;50.754;6.978;2023-02-28T10:57:23;18.42;;;2.60;;
39524;SDS011;25203;50.754;6.978;2023-02-28T10:59:31;12.52;;;2.75;;
39524;SDS011;25203;50.754;6.978;2023-02-28T11:03:39;4.07;;;1.88;;
39524;SDS011;25203;50.754;6.978;2023-02-28T11:05:40;2.92;;;1.70;;
39524;SDS011;25203;50.754;6.978;2023-02-28T11:07:41;3.42;;;1.70;;
39524;SDS011;25203;50.754;6.978;2023-02-28T11:09:55;2.47;;;1.80;;
39524;SDS011;25203;50.754;6.978;2023-02-28T11:11:57;2.20;;;1.60;;
39524;SDS011;25203;50.754;6.978;2023-02-28T11:14:05;3.15;;;1.95;;
39524;SDS011;25203;50.754;6.978;2023-02-28T11:16:15;2.20;;;1.55;;
39524;SDS011;25203;50.754;6.978;2023-02-28T11:20:53;3.03;;;2.08;;
39524;SDS011;25203;50.754;6.978;2023-02-28T11:22:55;2.28;;;1.60;;
39524;SDS011;25203;50.754;6.978;2023-02-28T11:25:02;3.28;;;2.13;;
39524;SDS011;25203;50.754;6.978;2023-02-28T11:29:32;2.40;;;1.83;;
39524;SDS011;25203;50.754;6.978;2023-02-28T11:31:34;4.05;;;2.13;;
39524;SDS011;25203;50.754;6.978;2023-02-28T11:33:51;2.55;;;1.85;;
39524;SDS011;25203;50.754;6.978;2023-02-28T11:35:57;1.85;;;1.70;;
39524;SDS011;25203;50.754;6.978;2023-02-28T11:40:18;2.17;;;1.90;;
39524;SDS011;25203;50.754;6.978;2023-02-28T11:42:24;4.57;;;2.00;;
39524;SDS011;25203;50.754;6.978;2023-02-28T11:44:40;3.67;;;1.90;;
39524;SDS011;25203;50.754;6.978;2023-02-28T11:47:26;4.28;;;1.88;;
39524;SDS011;25203;50.754;6.978;2023-02-28T11:49:44;2.08;;;1.73;;
39524;SDS011;25203;50.754;6.978;2023-02-28T11:52:14;2.40;;;1.63;;
39524;SDS011;25203;50.754;6.978;2023-02-28T11:54:23;3.40;;;1.90;;
39524;SDS011;25203;50.754;6.978;2023-02-28T11:56:36;2.53;;;1.73;;
39524;SDS011;25203;50.754;6.978;2023-02-28T11:58:42;2.80;;;1.70;;
39524;SDS011;25203;50.754;6.978;2023-02-28T12:01:10;1.92;;;1.45;;
39524;SDS011;25203;50.754;6.978;2023-02-28T12:03:36;2.97;;;1.60;;
39524;SDS011;25203;50.754;6.978;2023-02-28T12:05:54;2.22;;;1.73;;
39524;SDS011;25203;50.754;6.978;2023-02-28T12:15:23;2.42;;;1.65;;
39524;SDS011;25203;50.754;6.978;2023-02-28T12:17:48;4.55;;;1.70;;
39524;SDS011;25203;50.754;6.978;2023-02-28T12:27:07;1.88;;;1.63;;
39524;SDS011;25203;50.754;6.978;2023-02-28T12:31:26;3.72;;;2.25;;
39524;SDS011;25203;50.754;6.978;2023-02-28T12:33:36;4.50;;;2.13;;
39524;SDS011;25203;50.754;6.978;2023-02-28T12:37:56;2.58;;;1.90;;
39524;SDS011;25203;50.754;6.978;2023-02-28T12:40:13;3.13;;;1.88;;
39524;SDS011;25203;50.754;6.978;2023-02-28T12:44:49;4.28;;;2.15;;
39524;SDS011;25203;50.754;6.978;2023-02-28T12:46:55;5.30;;;2.45;;
39524;SDS011;25203;50.754;6.978;2023-02-28T12:49:02;5.53;;;2.22;;
39524;SDS011;25203;50.754;6.978;2023-02-28T12:51:08;3.33;;;2.10;;
39524;SDS011;25203;50.754;6.978;2023-02-28T12:53:32;3.17;;;2.13;;
39524;SDS011;25203;50.754;6.978;2023-02-28T12:55:47;3.15;;;1.73;;
39524;SDS011;25203;50.754;6.978;2023-02-28T12:57:52;3.03;;;1.80;;
39524;SDS011;25203;50.754;6.978;2023-02-28T13:00:12;5.25;;;2.00;;
39524;SDS011;25203;50.754;6.978;2023-02-28T13:09:20;4.75;;;2.28;;
39524;SDS011;25203;50.754;6.978;2023-02-28T13:11:25;3.75;;;2.05;;
39524;SDS011;25203;50.754;6.978;2023-02-28T13:13:45;3.35;;;2.05;;
39524;SDS011;25203;50.754;6.978;2023-02-28T13:16:19;2.67;;;1.92;;
39524;SDS011;25203;50.754;6.978;2023-02-28T13:18:27;2.72;;;2.25;;
39524;SDS011;25203;50.754;6.978;2023-02-28T13:20:46;3.40;;;2.20;;
39524;SDS011;25203;50.754;6.978;2023-02-28T13:22:48;4.47;;;2.00;;
39524;SDS011;25203;50.754;6.978;2023-02-28T13:24:51;6.15;;;2.33;;
39524;SDS011;25203;50.754;6.978;2023-02-28T13:29:00;4.90;;;2.10;;
39524;SDS011;25203;50.754;6.978;2023-02-28T13:31:10;3.80;;;2.42;;
39524;SDS011;25203;50.754;6.978;2023-02-28T13:35:34;4.47;;;2.75;;
39524;SDS011;25203;50.754;6.978;2023-02-28T13:37:41;5.22;;;2.60;;
39524;SDS011;25203;50.754;6.978;2023-02-28T13:41:46;3.22;;;2.00;;
39524;SDS011;25203;50.754;6.978;2023-02-28T13:46:09;2.90;;;2.38;;
39524;SDS011;25203;50.754;6.978;2023-02-28T13:48:16;3.33;;;2.30;;
39524;SDS011;25203;50.754;6.978;2023-02-28T13:52:26;5.30;;;2.97;;
39524;SDS011;25203;50.754;6.978;2023-02-28T13:55:02;9.43;;;2.85;;
39524;SDS011;25203;50.754;6.978;2023-02-28T13:57:25;3.97;;;2.63;;
39524;SDS011;25203;50.754;6.978;2023-02-28T14:06:51;4.32;;;2.65;;
39524;SDS011;25203;50.754;6.978;2023-02-28T14:11:05;5.10;;;2.92;;
39524;SDS011;25203;50.754;6.978;2023-02-28T14:15:26;4.85;;;2.60;;
39524;SDS011;25203;50.754;6.978;2023-02-28T14:17:35;4.05;;;2.60;;
39524;SDS011;25203;50.754;6.978;2023-02-28T14:19:37;8.27;;;3.00;;
39524;SDS011;25203;50.754;6.978;2023-02-28T14:21:43;4.53;;;2.97;;